Time;durP1;ratioP1;P1;durP2;ratioP2;P2;SDS_P1;SDS_P2;PMS_P1;PMS_P2;Temp;Humidity;BMP_temperature;BMP_pressure;BME280_temperature;BME280_humidity;BME280_pressure;Samples;Min_cycle;Max_cycle;Signal;HPM_P1;HPM_P2
2022/07/07 00:01:58;;;;;;;15.82;13.48;;;;;;;20.59;73.26;99530.13;4977668;28;20090;-77
2022/07/07 00:04:24;;;;;;;16.23;13.43;;;;;;;20.38;72.77;99495.19;4976511;28;20046;-76
2022/07/07 00:06:50;;;;;;;14.52;13.02;;;;;;;20.62;72.91;99539.72;4976977;28;20104;-75
2022/07/07 00:09:16;;;;;;;15.65;13.07;;;;;;;20.55;72.71;99523.31;4974180;28;20034;-76
2022/07/07 00:11:44;;;;;;;17.27;14.52;;;;;;;20.60;73.01;99533.66;4975609;28;20049;-77
2022/07/07 00:14:10;;;;;;;16.27;14.13;;;;;;;20.59;72.91;99532.78;4976287;28;20077;-76
2022/07/07 00:16:37;;;;;;;18.98;13.50;;;;;;;20.55;72.93;99527.75;4974052;28;20089;-76
2022/07/07 00:19:04;;;;;;;15.88;14.23;;;;;;;20.56;72.89;99532.09;4975825;28;20397;-77
2022/07/07 00:21:31;;;;;;;17.75;13.50;;;;;;;20.51;72.95;99526.22;4990278;28;20053;-78
2022/07/07 00:23:57;;;;;;;17.63;14.48;;;;;;;20.51;72.72;99520.94;4974770;28;20066;-77
2022/07/07 00:26:24;;;;;;;15.35;13.52;;;;;;;20.50;72.85;99520.09;5007164;28;20112;-76
2022/07/07 00:28:50;;;;;;;15.43;13.93;;;;;;;20.51;72.87;99521.78;4976055;28;20057;-77
2022/07/07 00:31:16;;;;;;;18.02;14.02;;;;;;;20.44;72.67;99512.50;4990831;28;20042;-77
2022/07/07 00:33:44;;;;;;;15.40;13.43;;;;;;;20.47;73.01;99533.47;4976083;28;20043;-76
2022/07/07 00:36:10;;;;;;;18.10;14.00;;;;;;;20.44;72.88;99534.47;4975853;28;20102;-76
2022/07/07 00:38:36;;;;;;;16.38;14.15;;;;;;;20.37;73.17;99525.19;4976056;28;20049;-76
2022/07/07 00:41:02;;;;;;;15.43;13.80;;;;;;;20.38;72.77;99526.88;4977649;28;20077;-76
2022/07/07 00:43:40;;;;;;;18.13;14.88;;;;;;;20.37;73.16;99521.66;4997390;28;20042;-75
2022/07/07 00:46:07;;;;;;;16.35;14.55;;;;;;;20.36;72.66;99533.16;4982311;28;20104;-76
2022/07/07 00:48:36;;;;;;;20.63;14.55;;;;;;;20.34;73.37;99529.75;5005829;28;20048;-76
2022/07/07 00:51:03;;;;;;;18.05;14.93;;;;;;;20.29;73.31;99524.72;4976498;28;20126;-77
2022/07/07 00:53:30;;;;;;;16.48;14.15;;;;;;;20.32;73.40;99532.50;4978419;28;20088;-75
2022/07/07 00:55:58;;;;;;;16.63;13.50;;;;;;;20.29;73.42;99525.59;4992322;28;20137;-76
2022/07/07 00:58:24;;;;;;;17.73;15.05;;;;;;;20.31;73.22;99533.44;4993175;28;20050;-77
2022/07/07 01:00:50;;;;;;;17.50;15.32;;;;;;;20.20;73.33;99525.22;4977800;28;20145;-78
2022/07/07 01:03:16;;;;;;;18.52;13.88;;;;;;;20.23;73.38;99528.56;4977002;28;20080;-77
2022/07/07 01:05:46;;;;;;;16.33;13.80;;;;;;;20.17;73.32;99524.47;4978110;28;20500;-76
2022/07/07 01:08:15;;;;;;;17.27;13.77;;;;;;;20.22;73.64;99531.25;4993244;28;20046;-76
2022/07/07 01:10:45;;;;;;;16.92;14.75;;;;;;;20.26;73.53;99535.47;4993691;28;20491;-77
2022/07/07 01:13:11;;;;;;;19.45;15.07;;;;;;;20.22;73.57;99533.91;4976774;28;20173;-77
2022/07/07 01:15:37;;;;;;;17.60;14.32;;;;;;;20.26;73.66;99538.97;4976095;28;20042;-75
2022/07/07 01:18:06;;;;;;;17.20;15.00;;;;;;;20.28;73.77;99542.38;4991897;28;20555;-77
2022/07/07 01:20:34;;;;;;;18.73;14.50;;;;;;;20.24;73.59;99537.31;4992728;28;20098;-75
2022/07/07 01:23:01;;;;;;;17.30;14.43;;;;;;;20.24;73.50;99546.13;4977306;28;20048;-76
2022/07/07 01:25:27;;;;;;;18.33;14.65;;;;;;;20.17;73.93;99524.47;4977447;28;20146;-74
2022/07/07 01:27:53;;;;;;;20.65;15.13;;;;;;;20.26;73.46;99536.31;4978536;28;20053;-76
2022/07/07 01:30:19;;;;;;;16.45;14.60;;;;;;;20.20;73.84;99530.50;4976854;28;20069;-77
2022/07/07 01:32:46;;;;;;;18.90;15.30;;;;;;;20.27;73.68;99539.81;4969647;28;20081;-76
2022/07/07 01:35:12;;;;;;;19.60;15.10;;;;;;;20.25;73.60;99537.25;4978089;28;20039;-77
2022/07/07 01:37:39;;;;;;;16.85;14.27;;;;;;;20.22;73.97;99532.13;4993577;28;20124;-78
2022/07/07 01:40:05;;;;;;;17.58;14.10;;;;;;;20.17;73.83;99516.53;4976869;28;20084;-75
2022/07/07 01:42:39;;;;;;;18.42;14.80;;;;;;;20.27;74.15;99523.97;4979541;28;20399;-76
2022/07/07 01:45:15;;;;;;;17.10;14.05;;;;;;;20.29;74.01;99524.72;4994098;28;20046;-77
2022/07/07 01:47:41;;;;;;;16.17;13.93;;;;;;;20.36;73.90;99533.16;4974750;28;20038;-76
2022/07/07 01:50:07;;;;;;;16.65;13.65;;;;;;;20.32;73.95;99516.66;4977360;28;20077;-77
2022/07/07 01:52:35;;;;;;;17.52;14.30;;;;;;;20.45;73.80;99530.88;4984597;28;20434;-78
2022/07/07 01:55:01;;;;;;;17.70;14.48;;;;;;;20.46;73.39;99529.94;4977596;28;20867;-77
2022/07/07 01:57:27;;;;;;;15.82;14.15;;;;;;;20.53;73.50;99527.81;4980265;28;20046;-76
2022/07/07 01:59:53;;;;;;;15.95;14.25;;;;;;;20.58;73.17;99532.88;4985489;28;20050;-76
2022/07/07 02:02:20;;;;;;;19.58;13.07;;;;;;;20.64;73.56;99519.31;4979060;28;20080;-77
2022/07/07 02:04:46;;;;;;;16.80;14.68;;;;;;;20.69;73.09;99522.56;4992395;28;20605;-75
2022/07/07 02:07:12;;;;;;;26.67;19.83;;;;;;;20.77;72.90;99528.31;4991944;28;20034;-76
2022/07/07 02:09:38;;;;;;;15.13;13.25;;;;;;;20.79;72.91;99522.91;4976925;28;20151;-76
2022/07/07 02:12:04;;;;;;;15.65;13.13;;;;;;;20.85;72.59;99521.75;4977842;28;20042;-77
2022/07/07 02:14:31;;;;;;;16.05;12.35;;;;;;;20.86;72.58;99516.38;4977571;28;20385;-78
2022/07/07 02:16:58;;;;;;;16.70;13.25;;;;;;;20.91;72.32;99522.25;4976139;28;20038;-77
2022/07/07 02:19:25;;;;;;;18.60;13.32;;;;;;;20.91;72.08;99521.38;4975190;28;20449;-76
2022/07/07 02:21:52;;;;;;;16.00;12.88;;;;;;;20.96;72.33;99519.34;4976476;28;20038;-78
2022/07/07 02:24:18;;;;;;;14.80;13.23;;;;;;;21.00;71.96;99510.28;4977870;28;20042;-76
2022/07/07 02:26:44;;;;;;;16.77;13.05;;;;;;;21.11;71.97;99522.03;4991732;28;20196;-76
2022/07/07 02:29:10;;;;;;;14.02;12.52;;;;;;;21.09;71.82;99516.84;4978801;28;20121;-78
2022/07/07 02:31:37;;;;;;;15.30;12.82;;;;;;;21.19;71.83;99525.09;4977445;28;20038;-78
2022/07/07 02:34:03;;;;;;;14.45;12.55;;;;;;;21.26;71.50;99520.31;4994677;28;20050;-77
2022/07/07 02:36:29;;;;;;;15.18;12.88;;;;;;;21.20;70.88;99505.66;5007974;28;20065;-75
2022/07/07 02:38:56;;;;;;;16.58;11.90;;;;;;;21.24;70.89;99512.47;4979768;28;20503;-77
2022/07/07 02:41:22;;;;;;;13.35;11.82;;;;;;;21.27;70.87;99522.88;4976404;28;20057;-77
2022/07/07 02:43:48;;;;;;;15.88;12.40;;;;;;;21.32;71.01;99525.25;4977552;28;20126;-76
2022/07/07 02:46:15;;;;;;;14.73;13.18;;;;;;;21.34;70.75;99533.97;4999335;28;20039;-75
2022/07/07 02:48:42;;;;;;;18.50;11.95;;;;;;;21.39;70.36;99533.69;5014989;28;20051;-79
2022/07/07 02:51:08;;;;;;;13.90;12.40;;;;;;;21.48;70.50;99535.81;4978239;28;20064;-76
2022/07/07 02:53:36;;;;;;;16.88;11.65;;;;;;;21.58;70.52;99529.00;4988297;28;20465;-76
2022/07/07 02:56:03;;;;;;;15.02;12.80;;;;;;;21.65;69.90;99521.59;4959163;28;20050;-76
2022/07/07 02:58:29;;;;;;;15.48;11.15;;;;;;;21.66;69.65;99515.34;4992202;28;20090;-76
2022/07/07 03:00:58;;;;;;;15.32;12.68;;;;;;;21.73;69.95;99519.34;4993099;28;20149;-80
2022/07/07 03:03:24;;;;;;;14.25;12.18;;;;;;;21.80;69.64;99518.03;4991187;28;20049;-78
2022/07/07 03:05:50;;;;;;;14.00;11.60;;;;;;;21.88;68.99;99522.88;4994756;28;20039;-79
2022/07/07 03:08:17;;;;;;;16.20;12.10;;;;;;;21.98;69.41;99533.75;4991626;28;20492;-77
2022/07/07 03:10:43;;;;;;;13.55;11.52;;;;;;;22.12;68.79;99536.41;4997667;28;20043;-76
2022/07/07 03:13:09;;;;;;;14.25;11.27;;;;;;;22.29;68.42;99549.56;4988539;28;20543;-76
2022/07/07 03:15:35;;;;;;;12.77;10.95;;;;;;;22.44;68.70;99550.44;4978243;28;20078;-77
2022/07/07 03:18:01;;;;;;;14.70;13.20;;;;;;;22.60;68.35;99555.66;4964473;28;20110;-78
2022/07/07 03:20:27;;;;;;;16.77;11.35;;;;;;;22.67;67.83;99535.72;4977789;28;20567;-77
2022/07/07 03:22:53;;;;;;;12.02;10.80;;;;;;;22.85;67.34;99550.47;4976364;28;20112;-76
2022/07/07 03:25:19;;;;;;;16.23;10.77;;;;;;;23.05;66.93;99550.13;4974020;28;20373;-77
2022/07/07 03:27:46;;;;;;;14.32;10.90;;;;;;;23.11;66.69;99534.66;4991990;28;20109;-78
2022/07/07 03:30:12;;;;;;;11.88;10.70;;;;;;;23.29;66.58;99553.00;4991866;28;20060;-76
2022/07/07 03:32:38;;;;;;;12.02;10.73;;;;;;;23.30;65.78;99536.13;4975641;28;20514;-78
2022/07/07 03:35:08;;;;;;;12.60;10.52;;;;;;;23.39;65.62;99543.50;4975613;28;20042;-79
2022/07/07 03:37:35;;;;;;;12.48;10.75;;;;;;;23.54;65.42;99554.03;4979104;28;20046;-75
2022/07/07 03:40:02;;;;;;;12.95;10.82;;;;;;;23.62;64.76;99549.91;4988185;28;20050;-78
2022/07/07 03:42:29;;;;;;;12.98;10.10;;;;;;;23.72;64.83;99544.00;4975464;28;20042;-76
2022/07/07 03:44:55;;;;;;;11.52;10.30;;;;;;;23.86;64.66;99543.06;4975642;28;20049;-78
2022/07/07 03:47:22;;;;;;;11.27;10.20;;;;;;;23.98;63.91;99547.53;4977242;28;20044;-77
2022/07/07 03:49:48;;;;;;;13.52;10.80;;;;;;;24.12;63.81;99546.59;4982888;28;20426;-76
2022/07/07 03:52:15;;;;;;;11.02;9.60;;;;;;;24.29;63.26;99545.41;4975418;28;20081;-77
2022/07/07 03:54:41;;;;;;;16.20;10.52;;;;;;;24.41;63.31;99548.16;4975146;28;20134;-76
2022/07/07 03:57:07;;;;;;;11.23;10.23;;;;;;;24.52;62.42;99553.56;4975844;28;20038;-76
2022/07/07 03:59:33;;;;;;;11.10;9.90;;;;;;;24.67;62.26;99546.31;4990868;28;20515;-76
2022/07/07 04:01:59;;;;;;;11.13;9.20;;;;;;;24.80;61.89;99519.69;4976480;28;20152;-77
2022/07/07 04:04:25;;;;;;;10.90;8.98;;;;;;;25.03;61.21;99535.78;4976049;28;20050;-78
2022/07/07 04:06:51;;;;;;;15.30;9.57;;;;;;;25.20;61.00;99542.50;4992449;28;20041;-77
2022/07/07 04:09:18;;;;;;;11.98;9.20;;;;;;;25.39;60.02;99542.81;4974417;28;20038;-77
2022/07/07 04:11:44;;;;;;;12.15;9.80;;;;;;;25.46;59.40;99531.75;4977345;28;20735;-78
2022/07/07 04:14:10;;;;;;;12.52;9.27;;;;;;;25.63;59.18;99541.13;4977720;28;20153;-77
2022/07/07 04:16:36;;;;;;;11.55;8.95;;;;;;;25.61;58.63;99529.75;4982725;28;20098;-75
2022/07/07 04:19:04;;;;;;;15.48;9.13;;;;;;;25.56;57.66;99514.13;4988315;28;20054;-77
2022/07/07 04:21:33;;;;;;;13.00;9.55;;;;;;;25.69;57.95;99527.34;5016456;28;20038;-76
2022/07/07 04:24:02;;;;;;;9.93;8.90;;;;;;;25.81;57.80;99526.41;5018958;28;20113;-76
2022/07/07 04:26:29;;;;;;;11.82;9.13;;;;;;;25.89;57.36;99531.13;4977330;28;20054;-78
2022/07/07 04:28:55;;;;;;;10.57;9.40;;;;;;;25.94;56.64;99531.63;4979692;28;20467;-77
2022/07/07 04:31:21;;;;;;;10.48;9.35;;;;;;;26.06;56.62;99534.28;4979319;28;21468;-76
2022/07/07 04:33:47;;;;;;;11.25;9.35;;;;;;;26.11;56.30;99532.13;4994235;28;20379;-78
2022/07/07 04:36:17;;;;;;;12.20;10.20;;;;;;;26.14;56.06;99526.59;4980131;28;20132;-76
2022/07/07 04:38:43;;;;;;;12.32;9.85;;;;;;;26.21;55.72;99525.16;4993686;28;20979;-76
2022/07/07 04:41:09;;;;;;;9.98;9.07;;;;;;;26.24;56.22;99532.03;4980410;28;20515;-77
2022/07/07 04:43:35;;;;;;;10.68;9.30;;;;;;;26.30;55.52;99531.56;4994268;28;20189;-76
2022/07/07 04:46:08;;;;;;;10.35;9.15;;;;;;;26.38;55.37;99523.78;4978601;28;20177;-76
2022/07/07 04:48:34;;;;;;;13.05;9.52;;;;;;;26.55;55.36;99529.63;4997434;28;20097;-77
2022/07/07 04:51:00;;;;;;;10.65;9.30;;;;;;;26.53;54.89;99505.72;4981544;28;20511;-75
2022/07/07 04:53:32;;;;;;;9.95;8.93;;;;;;;26.74;54.66;99511.16;5012174;28;20039;-79
2022/07/07 04:56:05;;;;;;;9.90;9.00;;;;;;;26.88;54.40;99519.88;4979615;28;20038;-76
2022/07/07 04:58:39;;;;;;;10.57;9.43;;;;;;;27.00;53.66;99513.53;4994028;28;20186;-77
2022/07/07 05:01:06;;;;;;;9.80;8.90;;;;;;;27.03;53.61;99513.25;4976889;28;20040;-75
2022/07/07 05:03:31;;;;;;;11.48;8.27;;;;;;;27.15;53.38;99507.88;4980131;28;20043;-76
2022/07/07 05:06:01;;;;;;;10.05;9.02;;;;;;;27.35;52.91;99511.56;4979260;28;20065;-77
2022/07/07 05:08:29;;;;;;;14.75;8.68;;;;;;;27.49;53.02;99510.41;4969563;28;20038;-75
2022/07/07 05:10:56;;;;;;;9.02;8.23;;;;;;;27.61;52.66;99498.72;4978625;28;20470;-76
2022/07/07 05:13:22;;;;;;;10.48;8.77;;;;;;;27.74;51.62;99500.31;4994083;28;20057;-76
2022/07/07 05:15:49;;;;;;;9.25;8.30;;;;;;;27.80;51.38;99500.66;5012726;28;20064;-76
2022/07/07 05:18:15;;;;;;;10.10;9.07;;;;;;;27.87;51.39;99498.28;4997321;28;20105;-77
2022/07/07 05:20:42;;;;;;;8.93;8.02;;;;;;;28.21;51.24;99508.75;4972538;28;20034;-77
2022/07/07 05:23:11;;;;;;;9.32;8.52;;;;;;;28.36;49.99;99493.16;4997160;28;20054;-76
2022/07/07 05:25:42;;;;;;;9.77;8.57;;;;;;;28.37;50.00;99488.66;5028575;28;20344;-76
2022/07/07 05:28:11;;;;;;;9.70;8.63;;;;;;;28.53;50.25;99494.34;5006169;28;20043;-76
2022/07/07 05:30:37;;;;;;;10.18;9.00;;;;;;;28.74;49.11;99487.19;4986690;28;20042;-79
2022/07/07 05:33:07;;;;;;;8.98;8.07;;;;;;;28.96;48.49;99486.13;4982687;28;20042;-78
2022/07/07 05:35:35;;;;;;;11.57;8.93;;;;;;;29.19;48.46;99489.38;4989938;28;20061;-77
2022/07/07 05:38:02;;;;;;;10.13;8.77;;;;;;;29.48;48.16;99491.22;4972420;28;20605;-77
2022/07/07 05:40:31;;;;;;;13.80;8.95;;;;;;;29.61;47.63;99489.06;4980883;28;20043;-77
2022/07/07 05:42:57;;;;;;;10.02;8.07;;;;;;;29.82;47.37;99495.22;4983134;28;20476;-77
2022/07/07 05:45:24;;;;;;;13.15;9.20;;;;;;;29.80;46.24;99484.63;4975849;28;20046;-76
2022/07/07 05:47:53;;;;;;;11.93;8.27;;;;;;;29.79;46.32;99511.59;4979282;28;20045;-77
2022/07/07 05:51:04;;;;;;;10.27;8.40;;;;;;;29.56;46.52;99490.47;4978762;28;20038;-77
2022/07/07 05:53:42;;;;;;;9.68;8.52;;;;;;;29.79;46.30;99466.03;4994226;28;20194;-79
2022/07/07 05:56:09;;;;;;;16.73;10.25;;;;;;;30.57;46.27;99492.53;4985843;28;20462;-76
2022/07/07 05:58:35;;;;;;;12.77;8.98;;;;;;;31.25;45.30;99477.75;4991746;28;20043;-77
2022/07/07 06:01:04;;;;;;;11.27;8.75;;;;;;;31.72;43.59;99510.72;4965385;28;20057;-78
2022/07/07 06:03:30;;;;;;;12.57;8.50;;;;;;;32.04;42.25;99498.47;4984401;28;20080;-77
2022/07/07 06:05:56;;;;;;;9.15;8.25;;;;;;;32.14;42.71;99498.34;5009536;28;20125;-77
2022/07/07 06:08:22;;;;;;;9.10;8.15;;;;;;;32.27;41.62;99495.25;4977430;28;20086;-78
2022/07/07 06:10:49;;;;;;;9.25;8.23;;;;;;;32.33;41.09;99504.53;4976874;28;20039;-77
2022/07/07 06:13:15;;;;;;;9.43;8.45;;;;;;;32.94;40.44;99480.97;5008583;28;20054;-77
2022/07/07 06:15:41;;;;;;;8.63;7.93;;;;;;;33.57;39.12;99473.22;4963806;28;20073;-76
2022/07/07 06:18:07;;;;;;;8.98;7.95;;;;;;;34.51;37.20;99493.34;4983884;28;20049;-78
2022/07/07 06:20:35;;;;;;;9.45;8.48;;;;;;;35.51;36.17;99483.56;4992379;28;20478;-78
2022/07/07 06:23:01;;;;;;;10.45;8.00;;;;;;;36.36;34.60;99468.88;4978807;28;20046;-77
2022/07/07 06:25:27;;;;;;;9.88;8.10;;;;;;;36.98;33.02;99469.38;4982921;28;20476;-77
2022/07/07 06:27:54;;;;;;;9.45;8.25;;;;;;;37.56;32.00;99471.94;4979373;28;20065;-76
2022/07/07 06:30:20;;;;;;;10.35;8.05;;;;;;;37.89;31.78;99462.34;4976844;28;20512;-76
2022/07/07 06:32:47;;;;;;;9.52;8.25;;;;;;;38.65;30.61;99476.88;4977103;28;20050;-77
2022/07/07 06:35:13;;;;;;;8.75;7.55;;;;;;;39.14;30.31;99464.00;4980848;28;20042;-77
2022/07/07 06:37:40;;;;;;;10.95;8.15;;;;;;;39.78;29.45;99466.25;4977904;28;20045;-76
2022/07/07 06:40:07;;;;;;;8.02;7.25;;;;;;;40.48;28.12;99466.44;4975571;28;20562;-76
2022/07/07 06:42:33;;;;;;;8.50;7.32;;;;;;;41.00;27.07;99490.00;4977580;28;20042;-77
2022/07/07 06:45:05;;;;;;;7.63;6.93;;;;;;;41.17;26.28;99475.84;4997299;28;20042;-78
2022/07/07 06:47:32;;;;;;;7.82;7.05;;;;;;;41.14;26.08;99477.13;4989561;28;20038;-76
2022/07/07 06:49:59;;;;;;;7.82;7.03;;;;;;;41.61;25.77;99471.25;4975035;28;20141;-75
2022/07/07 06:52:25;;;;;;;11.65;7.18;;;;;;;42.35;24.52;99475.03;4958881;28;20381;-78
2022/07/07 06:54:51;;;;;;;7.60;6.80;;;;;;;42.74;24.56;99475.56;4975006;28;20507;-76
2022/07/07 06:57:19;;;;;;;7.35;6.65;;;;;;;43.61;23.38;99478.75;4978068;28;20043;-77
2022/07/07 06:59:45;;;;;;;7.82;6.90;;;;;;;43.93;22.57;99467.44;4976373;28;20130;-76
2022/07/07 07:02:11;;;;;;;8.00;7.30;;;;;;;44.00;22.36;99472.78;4976355;28;20523;-77
2022/07/07 07:04:38;;;;;;;8.10;7.40;;;;;;;44.41;21.65;99478.25;4976282;28;20972;-78
2022/07/07 07:07:04;;;;;;;7.47;6.97;;;;;;;43.63;21.25;99488.44;4958564;28;20130;-77
2022/07/07 07:09:31;;;;;;;21.95;8.60;;;;;;;43.20;21.78;99487.66;4991457;28;20042;-78
2022/07/07 07:11:57;;;;;;;10.57;7.07;;;;;;;43.22;22.31;99483.91;4974742;28;20383;-77
2022/07/07 07:14:26;;;;;;;8.02;7.43;;;;;;;43.33;21.96;99474.88;4975405;28;20539;-77
2022/07/07 07:16:52;;;;;;;7.70;7.10;;;;;;;43.69;21.78;99470.22;4976478;28;20046;-78
2022/07/07 07:19:21;;;;;;;7.90;7.10;;;;;;;44.08;21.21;99472.44;4975401;28;20125;-76
2022/07/07 07:21:47;;;;;;;7.85;7.00;;;;;;;45.11;20.57;99470.75;4990853;28;20097;-79
2022/07/07 07:24:14;;;;;;;7.03;6.30;;;;;;;45.18;20.57;99468.63;4976730;28;20046;-79
2022/07/07 07:26:41;;;;;;;8.50;7.78;;;;;;;45.08;19.67;99483.03;4958833;28;20552;-77
2022/07/07 07:29:07;;;;;;;8.15;7.40;;;;;;;44.47;19.91;99474.56;4977044;28;20133;-76
2022/07/07 07:31:33;;;;;;;7.50;6.80;;;;;;;44.45;20.66;99477.53;4991584;28;20052;-77
2022/07/07 07:34:00;;;;;;;10.40;7.38;;;;;;;45.09;19.36;99472.91;5009920;28;20441;-77
2022/07/07 07:36:26;;;;;;;8.73;7.10;;;;;;;45.79;19.37;99459.69;4975540;28;20208;-78
2022/07/07 07:38:52;;;;;;;8.68;6.93;;;;;;;46.78;19.24;99458.84;4976663;28;20186;-80
2022/07/07 07:41:19;;;;;;;8.02;7.13;;;;;;;47.49;17.63;99463.19;4990300;28;20042;-78
2022/07/07 07:43:48;;;;;;;11.73;8.02;;;;;;;47.60;17.91;99463.31;4973946;28;20533;-77
2022/07/07 07:46:14;;;;;;;8.45;7.30;;;;;;;48.38;17.38;99461.69;4975110;28;20050;-77
2022/07/07 07:48:40;;;;;;;11.02;8.10;;;;;;;47.94;16.54;99469.25;5009320;28;20092;-76
2022/07/07 07:51:06;;;;;;;9.77;8.77;;;;;;;47.20;16.57;99471.03;4983626;28;20574;-78
2022/07/07 07:53:35;;;;;;;9.77;8.77;;;;;;;46.27;17.38;99448.13;4986516;28;20200;-78
2022/07/07 07:56:01;;;;;;;9.20;8.38;;;;;;;45.98;18.10;99456.59;4980877;28;20118;-77
2022/07/07 07:58:28;;;;;;;9.80;7.95;;;;;;;46.69;17.75;99463.16;4987940;28;20534;-78
2022/07/07 08:00:54;;;;;;;11.38;8.80;;;;;;;47.05;16.91;99458.78;4981535;28;20043;-75
2022/07/07 08:03:20;;;;;;;9.95;8.93;;;;;;;47.20;17.16;99465.50;4978494;28;20073;-77
2022/07/07 08:05:47;;;;;;;11.85;9.65;;;;;;;47.17;16.64;99469.59;4993226;28;20042;-77
2022/07/07 08:08:13;;;;;;;9.88;8.93;;;;;;;46.63;16.78;99476.03;4979752;28;20039;-77
2022/07/07 08:10:39;;;;;;;10.93;8.70;;;;;;;46.79;17.28;99462.41;4994022;28;20050;-78
2022/07/07 08:13:05;;;;;;;10.02;9.13;;;;;;;47.31;17.03;99459.00;4988487;28;20038;-77
2022/07/07 08:15:31;;;;;;;12.25;9.50;;;;;;;47.45;16.53;99469.53;4985723;28;20042;-76
2022/07/07 08:18:03;;;;;;;13.30;10.00;;;;;;;46.95;16.34;99425.69;5011561;28;20045;-77
2022/07/07 08:20:29;;;;;;;10.02;9.13;;;;;;;47.28;15.87;99478.78;4984164;28;20548;-79
2022/07/07 08:22:55;;;;;;;10.25;9.25;;;;;;;46.53;16.09;99475.91;4990493;28;20145;-79
2022/07/07 08:25:21;;;;;;;13.80;9.95;;;;;;;46.77;16.31;99487.44;4980649;28;20157;-78
2022/07/07 08:27:47;;;;;;;11.63;10.43;;;;;;;46.29;16.24;99473.44;4979712;28;20034;-76
2022/07/07 08:30:15;;;;;;;11.85;10.85;;;;;;;45.80;17.69;99463.25;4979678;28;20046;-78
2022/07/07 08:32:45;;;;;;;17.08;13.68;;;;;;;46.68;16.90;99466.97;4980431;28;20046;-76
2022/07/07 08:35:11;;;;;;;11.40;10.38;;;;;;;47.10;16.48;99471.75;4990870;28;20046;-77
2022/07/07 08:37:42;;;;;;;10.82;9.93;;;;;;;47.54;16.58;99475.34;4993245;28;20121;-77
2022/07/07 08:40:10;;;;;;;11.27;10.38;;;;;;;47.66;16.03;99478.75;4979335;28;20165;-78
2022/07/07 08:42:37;;;;;;;11.57;10.30;;;;;;;47.01;15.83;99476.09;4969874;28;20039;-77
2022/07/07 08:45:03;;;;;;;11.02;9.93;;;;;;;45.90;16.94;99476.28;4976515;28;20074;-78
2022/07/07 08:47:30;;;;;;;10.30;9.27;;;;;;;45.93;17.40;99475.75;4978500;28;20052;-78
2022/07/07 08:49:56;;;;;;;10.75;9.82;;;;;;;46.17;16.98;99465.34;4978189;28;20070;-78
2022/07/07 08:52:22;;;;;;;11.90;10.73;;;;;;;45.82;17.41;99463.81;4979265;28;20077;-77
2022/07/07 08:54:49;;;;;;;11.10;10.07;;;;;;;46.07;17.24;99466.06;4993072;28;20046;-80
2022/07/07 08:57:15;;;;;;;13.90;9.52;;;;;;;46.49;16.58;99467.38;4992700;28;20049;-76
2022/07/07 08:59:42;;;;;;;12.02;10.15;;;;;;;47.04;16.18;99462.63;4966094;28;20688;-77
2022/07/07 09:02:09;;;;;;;11.45;9.52;;;;;;;47.10;16.28;99481.94;4977439;28;20047;-77
2022/07/07 09:04:35;;;;;;;11.20;9.35;;;;;;;46.49;17.01;99472.03;4978294;28;20096;-78
2022/07/07 09:07:04;;;;;;;10.73;9.07;;;;;;;46.28;17.09;99469.03;4979440;28;20030;-77
2022/07/07 09:09:44;;;;;;;10.70;9.50;;;;;;;46.50;16.79;99476.44;5001409;28;20062;-76
2022/07/07 09:12:12;;;;;;;10.50;9.35;;;;;;;46.23;17.13;99466.25;4988834;28;20113;-80
2022/07/07 09:14:40;;;;;;;12.75;9.43;;;;;;;45.96;16.54;99453.28;5007890;28;20057;-78
2022/07/07 09:17:27;;;;;;;9.60;8.70;;;;;;;46.27;16.83;99459.13;4978352;28;20035;-77
2022/07/07 09:20:03;;;;;;;9.73;8.82;;;;;;;47.10;16.51;99457.16;4994852;28;20131;-78
2022/07/07 09:22:50;;;;;;;10.40;8.45;;;;;;;48.08;15.80;99463.22;4975753;28;20536;-78
2022/07/07 09:25:22;;;;;;;9.70;8.73;;;;;;;46.86;16.38;99465.81;4968483;28;20050;-78
2022/07/07 09:27:52;;;;;;;10.90;8.13;;;;;;;46.22;16.80;99450.84;4978770;28;20096;-77
2022/07/07 09:30:28;;;;;;;9.60;8.70;;;;;;;45.03;16.99;99450.03;4985191;28;20039;-80
2022/07/07 09:32:55;;;;;;;9.57;8.65;;;;;;;43.65;18.21;99447.13;4992830;28;20043;-78
2022/07/07 09:38:17;;;;;;;8.82;8.10;;;;;;;41.27;20.27;99459.81;4978505;28;20042;-78
2022/07/07 09:41:16;;;;;;;9.50;8.50;;;;;;;41.15;20.54;99447.97;4993182;28;20129;-77
2022/07/07 09:43:51;;;;;;;13.05;9.00;;;;;;;42.10;20.08;99457.72;5013890;28;20125;-78
2022/07/07 09:46:18;;;;;;;10.50;8.40;;;;;;;43.11;19.67;99447.22;4977932;28;20472;-76
2022/07/07 09:48:48;;;;;;;9.27;8.45;;;;;;;44.21;18.51;99460.34;4976609;28;20039;-75
2022/07/07 09:51:27;;;;;;;10.68;8.60;;;;;;;44.06;18.22;99453.47;5010451;28;20046;-78
2022/07/07 09:54:12;;;;;;;11.07;8.60;;;;;;;43.86;18.59;99447.56;5008488;28;20042;-77
2022/07/07 09:56:41;;;;;;;10.27;8.70;;;;;;;43.04;19.32;99444.59;4987086;28;20057;-78
2022/07/07 09:59:16;;;;;;;9.95;8.30;;;;;;;43.14;19.54;99444.88;5008992;28;20636;-78
2022/07/07 10:01:45;;;;;;;10.45;8.60;;;;;;;43.56;19.05;99449.38;4976913;28;20049;-79
2022/07/07 10:04:21;;;;;;;8.70;7.90;;;;;;;43.36;18.47;99436.09;4978715;28;20043;-78
2022/07/07 10:06:52;;;;;;;8.93;8.10;;;;;;;42.73;18.11;99432.88;4975791;28;20034;-78
2022/07/07 10:09:20;;;;;;;8.90;8.00;;;;;;;42.04;19.22;99447.69;4975566;28;20204;-76
2022/07/07 10:11:56;;;;;;;11.35;8.43;;;;;;;41.43;19.69;99452.09;4990506;28;20042;-77
2022/07/07 10:14:31;;;;;;;10.25;8.32;;;;;;;40.63;20.90;99449.75;4977267;28;20199;-78
2022/07/07 10:16:58;;;;;;;10.82;8.82;;;;;;;39.90;21.17;99454.50;4967312;28;20081;-77
2022/07/07 10:19:29;;;;;;;9.70;8.73;;;;;;;39.39;21.75;99444.38;4977526;28;20113;-78
2022/07/07 10:21:57;;;;;;;9.68;8.77;;;;;;;38.45;22.59;99452.38;4990548;28;20076;-77
2022/07/07 10:24:28;;;;;;;11.45;8.80;;;;;;;38.28;23.22;99469.84;4977323;28;20258;-76
2022/07/07 10:26:59;;;;;;;10.77;8.73;;;;;;;38.22;23.46;99451.66;4989548;28;20401;-78
2022/07/07 10:29:46;;;;;;;10.93;9.13;;;;;;;38.39;23.33;99452.16;4991332;28;20046;-78
2022/07/07 10:32:18;;;;;;;10.07;8.98;;;;;;;38.48;23.38;99463.66;4976811;28;20050;-76
2022/07/07 10:34:51;;;;;;;12.85;9.57;;;;;;;38.23;23.33;99449.78;4972961;28;20105;-77
2022/07/07 10:37:18;;;;;;;12.23;8.80;;;;;;;38.29;22.82;99462.53;4978243;28;20031;-78
2022/07/07 10:39:49;;;;;;;10.20;9.13;;;;;;;37.82;24.22;99452.31;4990631;28;20038;-76
2022/07/07 10:42:15;;;;;;;10.00;9.05;;;;;;;37.81;24.52;99463.34;4974036;28;20034;-77
2022/07/07 10:44:49;;;;;;;10.88;9.18;;;;;;;37.63;25.16;99453.84;4963800;28;20073;-78
2022/07/07 10:47:22;;;;;;;10.95;9.73;;;;;;;37.25;25.29;99458.75;4973221;28;20508;-78
2022/07/07 10:49:54;;;;;;;18.38;10.40;;;;;;;36.95;25.35;99456.22;4974328;28;20057;-78
2022/07/07 10:52:41;;;;;;;13.48;9.95;;;;;;;36.52;25.88;99457.00;4975824;28;20536;-79
2022/07/07 10:55:10;;;;;;;11.15;10.00;;;;;;;36.41;26.24;99466.44;4982504;28;20109;-76
2022/07/07 10:57:47;;;;;;;10.77;9.70;;;;;;;36.24;25.48;99466.69;4990393;28;20547;-77
2022/07/07 11:00:19;;;;;;;11.80;9.93;;;;;;;35.96;26.01;99466.53;4975478;28;20121;-79
2022/07/07 11:02:48;;;;;;;16.13;10.52;;;;;;;35.77;26.50;99440.84;4976018;28;20034;-77
2022/07/07 11:05:17;;;;;;;11.67;10.27;;;;;;;35.67;27.24;99449.22;4991447;28;20043;-77
2022/07/07 11:08:07;;;;;;;11.60;10.43;;;;;;;35.64;27.99;99450.44;4991508;28;20047;-77
2022/07/07 11:10:42;;;;;;;15.10;10.48;;;;;;;35.84;27.20;99453.44;4976976;28;20168;-77
2022/07/07 11:13:20;;;;;;;12.63;10.43;;;;;;;35.88;27.33;99445.75;4992738;28;20046;-77
2022/07/07 11:15:52;;;;;;;12.15;10.95;;;;;;;35.97;27.57;99447.38;4973818;28;20043;-76
2022/07/07 11:18:20;;;;;;;11.82;10.77;;;;;;;35.71;27.65;99450.56;4977126;28;20046;-77
2022/07/07 11:21:01;;;;;;;14.95;11.23;;;;;;;35.34;28.17;99439.56;4976860;28;20060;-76
2022/07/07 11:23:42;;;;;;;13.80;11.52;;;;;;;35.29;28.37;99442.84;4970467;28;20038;-77
2022/07/07 11:26:10;;;;;;;16.58;11.70;;;;;;;35.10;28.82;99444.19;4976854;28;20082;-79
2022/07/07 11:28:37;;;;;;;15.35;12.00;;;;;;;35.04;28.75;99435.97;4977912;28;20101;-76
2022/07/07 11:31:16;;;;;;;12.50;11.30;;;;;;;34.92;29.16;99427.41;5010680;28;20062;-77
2022/07/07 11:33:48;;;;;;;12.68;11.35;;;;;;;34.86;29.63;99449.75;4989751;28;20048;-77